x

Fripp Nearshore (frp 2) (41033) Weather Station

3:00pm - Sun 14th Feb 2016 All times are EST. -5 hours from GMT.

  • Wind
    25mph, 31mph gusts
  • Air Temp 41°f
  • Sea Pressure 1026.9mb
  • Fripp Nearshore (frp 2)
  • Fripp Nearshore (frp 2)

More Historic Weather Station data

Upgrade to MSW Pro to gain access to the past 30 days of data for over 8000 Wavebouys and Weather Stations around the globe.

Join Pro

Comparision Forecast

View Surf forecast
   
Sun 02/14 3:00pm 25 31 mph 1026.9mb 41f
2:00pm 25 29 mph 1027.7mb 40f
1:00pm 29 36 mph 1028.5mb 40f
12:00pm 25 29 mph 1029.4mb 40f
11:00am 27 31 mph 1029.7mb 40f
10:00am 31 36 mph 1029.6mb 39f
9:00am 27 31 mph 1029.4mb 39f
8:00am 27 29 mph 1028.7mb 38f
7:00am 25 34 mph 1029.1mb 37f
6:00am 27 31 mph 1028.2mb 38f
5:00am 27 31 mph 1027.1mb 38f
4:00am 25 29 mph 1026.8mb 40f
3:00am 20 27 mph 1026.2mb 42f
2:00am 20 25 mph 1026.4mb 45f
1:00am 20 22 mph 1026mb 45f
12:00am 18 20 mph 1026.3mb 46f
Sat 02/13 11:00pm 16 20 mph 1026.7mb 45f
10:00pm 16 18 mph 1026.8mb 47f
9:00pm 9 11 mph 1026.7mb 47f
8:00pm 11 13 mph 1026.1mb 47f
7:00pm 13 16 mph 1025.6mb 49f
6:00pm 13
mph
1024.7mb 49f
5:00pm 9
mph
1024.1mb 50f
4:00pm 9
mph
1023.7mb 50f
3:00pm 11 13 mph 1023.7mb 49f
2:00pm 9
mph
1023.6mb 47f
1:00pm 9 11 mph 1024.1mb 46f
12:00pm 9 13 mph 1024.4mb 45f
11:00am 13 16 mph 1024.7mb 44f
10:00am 18 20 mph 1024.4mb 44f
9:00am 20 25 mph 1024mb 44f
8:00am 16 18 mph 1023.5mb 45f
7:00am 16 18 mph 1022.4mb 44f
6:00am 13 16 mph 1021mb 46f
5:00am 20 25 mph 1020.2mb 46f
4:00am 16
mph
1019.5mb 47f
3:00am 16 18 mph 1019mb 49f
2:00am 16 18 mph 1018.6mb 47f
1:00am 4 7 mph 1017.8mb 47f
12:00am 4 7 mph 1017.7mb 47f
Fri 02/12 11:00pm 7 9 mph 1017.4mb 49f
10:00pm 4 7 mph 1017.4mb 51f
9:00pm 2 4 mph 1017mb 50f
8:00pm  -  4 mph 1017mb 51f
7:00pm  -  4 mph 1016.9mb 52f
6:00pm 4
mph
1016.5mb 53f
5:00pm 4
mph
1016.4mb 53f
4:00pm 4 7 mph 1016.4mb 54f
3:00pm 11 13 mph 1016.3mb 55f
2:00pm 16 18 mph 1016.4mb 55f
1:00pm 16 18 mph 1017.5mb 54f
12:00pm 13 16 mph 1018.3mb 54f
11:00am 11 13 mph 1019mb 53f
10:00am 7 9 mph 1019.6mb 52f
9:00am 11 16 mph 1019.9mb 52f
8:00am 9 11 mph 1020mb 52f
7:00am 4 7 mph 1020.6mb 52f
6:00am 7 9 mph 1020.5mb 51f
5:00am 4
mph
1020.4mb 50f
4:00am 2 4 mph 1020.4mb 51f
3:00am 7 9 mph 1020.8mb 52f
2:00am 7 9 mph 1021.2mb 53f
1:00am 4 7 mph 1021.3mb 53f
12:00am 11 13 mph 1021.4mb 53f
Thu 02/11 11:00pm 11 13 mph 1021.8mb 53f
10:00pm 11
mph
1021.9mb 52f
9:00pm 9 11 mph 1022.3mb 51f
8:00pm 7
mph
1022.6mb 51f
7:00pm 4 7 mph 1022.4mb 51f
6:00pm 7 9 mph 1021.8mb 50f
5:00pm 7 9 mph 1021.4mb 50f
4:00pm 7 9 mph 1021.3mb 50f
3:00pm 11 13 mph 1021.1mb 49f
2:00pm 11 13 mph 1021.8mb 47f
1:00pm 7 9 mph 1022.6mb 48f
12:00pm 7
mph
1023.9mb 47f
11:00am 4 7 mph 1023.9mb 45f
10:00am 11 13 mph 1024.5mb 44f
8:00am 11 13 mph 1024.5mb 41f
7:00am 16 18 mph 1023.8mb 40f
6:00am 16 20 mph 1023mb 40f
5:00am 16 20 mph 1022.6mb 40f
4:00am 16 18 mph 1022.3mb 39f
3:00am 18 20 mph 1021.6mb 40f
2:00am 18 20 mph 1021.9mb 41f
1:00am 22 25 mph 1021.3mb 43f
12:00am 22 27 mph 1020.9mb 44f
Wed 02/10 11:00pm 25 29 mph 1020.4mb 44f
10:00pm 22 27 mph 1020.5mb 43f